CheckWX is a tool to help pilots better visualize weather data.  It is not intended as a substitute for an official pre-flight weather briefing.

09:06:21 UTC

KFLG METAR
Flagstaff Pulliam Airport
Flagstaff, Arizona, USA
Current

1 hour ago

KFLG 280757Z AUTO 24003KT 10SM CLR M08/M11 A3007 RMK AO2 SLP209 T10831106
Observed
Mar-28 @ 07:57 UTC
Wind
  • 240° at 3 KTS
Visibility
10 SM
Flight Rules
VFR
Cloud Levels
  • Clear skies
Temperature
-8°C / 18°F
Dewpoint
-11°C / 12°F
Humidity
79%
Altimeter
30.07" Hg
Pressure
1018.32 hPa
Previous

3 hours ago

KFLG 280557Z AUTO 00000KT 10SM CLR M05/M09 A3005 RMK AO2 SLP182 60002 T10501094 11006 21056 51021
Observed
Mar-28 @ 05:57 UTC
Visibility
10 SM
Flight Rules
VFR
Cloud Levels
  • Clear skies
Temperature
-5°C / 23°F
Dewpoint
-9°C / 16°F
Humidity
74%
Altimeter
30.05" Hg
Pressure
1017.62 hPa
Previous

4 hours ago

KFLG 280457Z AUTO 24006KT 10SM CLR M04/M10 A3004 RMK AO2 SLP172 T10391100
Observed
Mar-28 @ 04:57 UTC
Wind
  • 240° at 6 KTS
Visibility
10 SM
Flight Rules
VFR
Cloud Levels
  • Clear skies
Temperature
-4°C / 25°F
Dewpoint
-10°C / 14°F
Humidity
63%
Altimeter
30.04" Hg
Pressure
1017.32 hPa